Time;durP1;ratioP1;P1;durP2;ratioP2;P2;SDS_P1;SDS_P2;PMS_P1;PMS_P2;Temp;Humidity;BMP_temperature;BMP_pressure;BME280_temperature;BME280_humidity;BME280_pressure;Samples;Min_cycle;Max_cycle;Signal;HPM_P1;HPM_P2
2021/03/12 00:00:46;;;;;;;20.15;11.48;;;;;;;1.67;43.09;101335.98;1809650;78;21724;-80
2021/03/12 00:03:19;;;;;;;23.05;11.88;;;;;;;1.66;43.18;101326.36;1826658;78;21172;-81
2021/03/12 00:05:52;;;;;;;22.02;13.18;;;;;;;1.67;43.16;101329.38;1800129;78;21650;-76
2021/03/12 00:08:31;;;;;;;17.05;10.70;;;;;;;1.67;43.10;101330.70;1823927;78;21184;-81
2021/03/12 00:10:59;;;;;;;26.30;15.55;;;;;;;1.67;43.20;101329.38;1807123;78;21647;-79
2021/03/12 00:13:28;;;;;;;23.30;12.73;;;;;;;1.67;43.21;101311.75;1781935;80;21664;-80
2021/03/12 00:15:56;;;;;;;21.27;12.80;;;;;;;1.75;43.20;101310.04;1831447;77;21156;-80
2021/03/12 00:18:38;;;;;;;22.67;11.65;;;;;;;1.85;43.11;101310.40;1802320;77;21157;-80
2021/03/12 00:21:05;;;;;;;25.08;12.85;;;;;;;1.89;42.96;101302.23;1804588;78;21173;-81
2021/03/12 00:23:33;;;;;;;19.65;11.78;;;;;;;1.87;42.92;101294.87;1856364;77;21326;-78
2021/03/12 00:26:01;;;;;;;25.20;12.60;;;;;;;1.83;42.95;101294.64;1827072;78;21186;-77
2021/03/12 00:28:30;;;;;;;19.75;11.15;;;;;;;1.76;42.99;101282.69;1799473;78;21186;-79
2021/03/12 00:30:57;;;;;;;17.65;9.63;;;;;;;1.75;43.09;101283.63;1774129;79;21211;-80
2021/03/12 00:33:27;;;;;;;17.48;10.30;;;;;;;1.76;43.07;101278.25;1827932;78;21075;-79
2021/03/12 00:35:56;;;;;;;16.73;10.35;;;;;;;1.76;43.11;101280.89;1830306;77;21043;-78
2021/03/12 00:38:24;;;;;;;20.68;12.73;;;;;;;1.76;43.12;101280.89;1858458;77;21052;-80
2021/03/12 00:41:00;;;;;;;19.90;10.08;;;;;;;1.78;43.11;101275.55;1830275;77;21099;-76
2021/03/12 00:43:30;;;;;;;17.02;9.60;;;;;;;1.81;43.02;101275.84;1858161;77;21134;-78
2021/03/12 00:46:05;;;;;;;17.57;10.50;;;;;;;1.84;43.09;101262.47;1858406;77;21134;-78
2021/03/12 00:48:33;;;;;;;20.40;11.25;;;;;;;1.90;42.89;101268.73;1839991;77;21459;-78
2021/03/12 00:51:01;;;;;;;14.30;7.87;;;;;;;1.91;42.82;101263.39;1823443;78;21151;-80
2021/03/12 00:53:34;;;;;;;19.23;10.28;;;;;;;1.97;42.73;101268.80;1823113;78;21089;-80
2021/03/12 00:56:03;;;;;;;19.25;9.58;;;;;;;1.92;42.59;101263.77;1824632;78;21606;-80
2021/03/12 00:58:31;;;;;;;16.95;9.15;;;;;;;1.93;42.73;101256.22;1824364;78;21140;-78
2021/03/12 01:01:00;;;;;;;20.45;10.82;;;;;;;1.97;42.49;101249.84;1824169;78;21107;-78
2021/03/12 01:03:30;;;;;;;16.30;8.68;;;;;;;1.92;42.46;101241.78;1824305;78;21175;-81
2021/03/12 01:06:00;;;;;;;13.95;8.85;;;;;;;1.98;42.49;101248.89;1823987;78;21120;-77
2021/03/12 01:08:29;;;;;;;14.85;9.15;;;;;;;1.99;42.28;101244.45;1794240;78;21135;-79
2021/03/12 01:10:57;;;;;;;16.55;9.28;;;;;;;1.91;42.33;101239.61;1794841;78;21096;-81
2021/03/12 01:13:24;;;;;;;14.20;7.62;;;;;;;1.85;42.47;101241.25;1824208;78;21061;-78
2021/03/12 01:15:50;;;;;;;;;;;;;;;1.82;42.46;101252.00;1826404;78;21571;-79
2021/03/12 01:18:20;;;;;;;17.80;10.05;;;;;;;1.75;42.40;101240.05;1823198;78;20228;-79
2021/03/12 01:20:49;;;;;;;13.78;7.78;;;;;;;1.66;42.50;101236.11;1795401;78;21131;-78
2021/03/12 01:23:17;;;;;;;16.52;8.90;;;;;;;1.66;42.56;101236.11;1824369;78;21159;-78
2021/03/12 01:25:45;;;;;;;23.40;12.68;;;;;;;1.66;42.57;101244.03;1824426;78;21120;-80
2021/03/12 01:28:15;;;;;;;16.57;8.68;;;;;;;1.73;42.73;101241.93;1824594;78;21619;-82
2021/03/12 01:30:45;;;;;;;15.55;9.70;;;;;;;1.84;42.51;101248.80;1824457;78;21065;-78
2021/03/12 01:33:31;;;;;;;16.00;9.30;;;;;;;1.84;42.09;101240.87;1822565;78;21504;-79
2021/03/12 01:36:00;;;;;;;12.37;8.08;;;;;;;1.75;42.15;101235.61;1824353;78;21602;-79
2021/03/12 01:38:29;;;;;;;14.05;8.08;;;;;;;1.72;42.34;101234.92;1824401;78;21147;-77
2021/03/12 01:40:57;;;;;;;18.32;10.68;;;;;;;1.72;42.33;101236.23;1824512;78;21077;-80
2021/03/12 01:43:24;;;;;;;19.15;10.68;;;;;;;1.70;42.43;101231.52;1824434;78;21484;-78
2021/03/12 01:45:51;;;;;;;17.55;9.85;;;;;;;1.72;42.42;101232.28;1824523;78;21550;-77
2021/03/12 01:48:24;;;;;;;15.03;8.75;;;;;;;1.68;42.46;101231.61;1823877;78;21123;-81
2021/03/12 01:50:58;;;;;;;12.82;7.53;;;;;;;1.62;42.58;101239.84;1824533;78;21092;-77
2021/03/12 01:53:26;;;;;;;13.32;9.18;;;;;;;1.62;42.66;101240.31;1824232;78;21067;-76
2021/03/12 01:55:54;;;;;;;17.85;9.60;;;;;;;1.64;42.60;101243.74;1824269;78;21060;-78
2021/03/12 01:58:22;;;;;;;15.88;8.68;;;;;;;1.67;42.47;101243.09;1824436;78;21064;-78
2021/03/12 02:00:52;;;;;;;12.00;8.10;;;;;;;1.67;42.46;101246.20;1823556;78;21595;-78
2021/03/12 02:03:28;;;;;;;14.43;8.93;;;;;;;1.61;42.43;101239.94;1821576;78;21147;-82
2021/03/12 02:06:04;;;;;;;13.18;8.10;;;;;;;1.58;42.56;101237.45;1824160;78;21033;-79
2021/03/12 02:08:33;;;;;;;16.23;9.55;;;;;;;1.60;42.18;101233.80;1824274;78;21052;-81
2021/03/12 02:11:03;;;;;;;15.40;8.63;;;;;;;1.55;42.04;101237.63;1822560;78;21091;-80
2021/03/12 02:13:48;;;;;;;12.37;7.65;;;;;;;1.55;41.89;101241.13;1824494;78;21091;-81
2021/03/12 02:16:37;;;;;;;11.93;7.50;;;;;;;1.62;41.55;101240.31;1824865;78;21088;-82
2021/03/12 02:19:37;;;;;;;13.25;7.17;;;;;;;1.57;41.03;101229.15;1772529;78;21032;-76
2021/03/12 02:22:05;;;;;;;13.98;8.33;;;;;;;1.48;40.72;101212.00;1825190;78;21036;-79
2021/03/12 02:24:44;;;;;;;12.33;8.20;;;;;;;1.39;40.62;101214.66;1824416;78;21083;-79
2021/03/12 02:27:14;;;;;;;15.83;7.80;;;;;;;1.36;40.56;101206.89;1823570;78;21127;-80
2021/03/12 02:29:52;;;;;;;12.07;6.42;;;;;;;1.34;40.51;101208.78;1795410;78;21072;-79
2021/03/12 02:32:30;;;;;;;;;;;;;;;1.32;40.31;101192.19;1827073;78;21629;-80
2021/03/12 02:34:58;;;;;;;16.90;8.25;;;;;;;1.32;40.21;101182.95;1834302;76;20207;-79
2021/03/12 02:37:25;;;;;;;13.88;6.72;;;;;;;1.34;40.09;101186.81;1798664;77;21116;-78
2021/03/12 02:39:59;;;;;;;14.47;7.90;;;;;;;1.32;39.88;101186.02;1838464;76;21112;-82
2021/03/12 02:42:28;;;;;;;15.13;7.50;;;;;;;1.25;39.88;101177.13;1846657;76;21124;-77
2021/03/12 02:44:59;;;;;;;12.18;7.25;;;;;;;1.20;39.69;101176.98;1857104;77;21187;-81
2021/03/12 02:47:29;;;;;;;12.40;7.15;;;;;;;1.10;39.74;101179.25;1801000;77;21163;-77
2021/03/12 02:49:58;;;;;;;16.30;7.83;;;;;;;1.06;39.75;101182.13;1857247;77;21187;-79
2021/03/12 02:52:26;;;;;;;16.77;7.12;;;;;;;1.05;39.63;101197.58;1856583;77;21159;-77
2021/03/12 02:54:53;;;;;;;12.23;7.67;;;;;;;1.00;39.37;101191.23;1856527;77;21151;-79
2021/03/12 02:57:22;;;;;;;9.90;6.12;;;;;;;0.95;39.56;101190.14;1856582;77;21191;-79
2021/03/12 02:59:53;;;;;;;11.88;5.97;;;;;;;0.96;39.52;101201.55;1856382;77;21179;-77
2021/03/12 03:02:37;;;;;;;13.72;6.45;;;;;;;1.00;39.64;101215.81;1852358;77;21160;-78
2021/03/12 03:05:15;;;;;;;17.92;6.45;;;;;;;0.99;39.41;101218.05;1854981;77;21182;-76
2021/03/12 03:07:46;;;;;;;11.10;6.05;;;;;;;0.99;39.55;101223.31;1856735;77;21183;-78
2021/03/12 03:10:14;;;;;;;15.95;7.35;;;;;;;1.00;39.25;101231.64;1858060;77;21100;-79
2021/03/12 03:12:44;;;;;;;12.50;7.10;;;;;;;0.99;39.30;101219.36;1857892;77;21152;-78
2021/03/12 03:15:12;;;;;;;16.10;7.05;;;;;;;1.03;39.25;101211.30;1827311;77;21155;-76
2021/03/12 03:17:39;;;;;;;14.80;8.00;;;;;;;1.03;39.25;101215.26;1857914;77;21116;-77
2021/03/12 03:20:11;;;;;;;86.30;12.13;;;;;;;0.99;39.23;101215.41;1858084;77;21128;-75
2021/03/12 03:22:40;;;;;;;16.80;7.53;;;;;;;0.91;39.20;101207.05;1858048;77;21108;-78
2021/03/12 03:25:09;;;;;;;29.50;8.25;;;;;;;0.85;39.42;101203.39;1857993;77;21175;-79
2021/03/12 03:27:37;;;;;;;13.55;7.08;;;;;;;0.86;39.20;101187.94;1827493;77;21112;-81
2021/03/12 03:30:10;;;;;;;14.10;6.70;;;;;;;0.88;39.37;101178.19;1858017;77;21068;-80
2021/03/12 03:32:38;;;;;;;14.35;7.05;;;;;;;0.90;39.20;101176.78;1827276;77;21143;-78
2021/03/12 03:35:09;;;;;;;16.10;8.85;;;;;;;0.91;39.24;101168.81;1857971;77;21041;-77
2021/03/12 03:37:37;;;;;;;14.15;8.05;;;;;;;0.88;38.99;101176.02;1857741;77;21163;-79
2021/03/12 03:40:06;;;;;;;12.98;7.53;;;;;;;0.83;38.88;101165.70;1827048;77;21031;-76
2021/03/12 03:42:35;;;;;;;16.52;8.28;;;;;;;0.83;38.88;101153.84;1857685;77;21543;-76
2021/03/12 03:45:06;;;;;;;12.58;8.00;;;;;;;0.73;38.58;101139.43;1826806;77;21140;-76
2021/03/12 03:47:34;;;;;;;14.50;7.62;;;;;;;0.66;38.78;101134.07;1826847;77;21191;-80
2021/03/12 03:50:03;;;;;;;15.20;7.60;;;;;;;0.59;38.50;101126.95;1827320;77;21147;-78
2021/03/12 03:52:30;;;;;;;14.25;8.40;;;;;;;0.54;38.62;101124.14;1857487;77;21112;-80
2021/03/12 03:55:01;;;;;;;17.82;8.05;;;;;;;0.55;38.63;101130.67;1857175;77;21140;-79
2021/03/12 03:57:29;;;;;;;17.25;8.45;;;;;;;0.59;38.55;101126.07;1827791;77;21092;-79
2021/03/12 03:59:58;;;;;;;12.65;6.85;;;;;;;0.56;38.19;101113.07;1858172;77;21049;-78
2021/03/12 04:02:25;;;;;;;18.48;9.00;;;;;;;0.57;37.94;101110.81;1858131;77;21037;-79
2021/03/12 04:04:53;;;;;;;16.80;7.70;;;;;;;0.57;38.09;101102.91;1858044;77;21076;-79
2021/03/12 04:07:23;;;;;;;14.70;7.60;;;;;;;0.61;37.86;101097.87;1857482;77;21519;-80
2021/03/12 04:09:52;;;;;;;18.67;8.48;;;;;;;0.58;37.86;101098.02;1857586;77;21550;-79
2021/03/12 04:12:20;;;;;;;14.70;8.90;;;;;;;0.60;38.03;101097.48;1857679;77;21128;-76
2021/03/12 04:14:49;;;;;;;13.55;8.00;;;;;;;0.63;37.77;101109.17;1857536;77;21136;-78
2021/03/12 04:17:19;;;;;;;17.52;7.72;;;;;;;0.68;37.70;101093.96;1825685;77;21132;-80
2021/03/12 04:19:48;;;;;;;20.02;8.53;;;;;;;0.67;37.29;101101.49;1857859;77;21148;-79
2021/03/12 04:22:16;;;;;;;18.02;8.38;;;;;;;0.62;37.25;101104.84;1846791;77;21104;-78
2021/03/12 04:24:43;;;;;;;20.82;9.23;;;;;;;0.52;37.13;101103.61;1822900;78;21189;-79
2021/03/12 04:27:12;;;;;;;15.03;8.35;;;;;;;0.37;37.44;101092.07;1841336;77;21180;-80
2021/03/12 04:29:40;;;;;;;21.10;9.95;;;;;;;0.37;37.60;101097.34;1832274;77;21159;-80
2021/03/12 04:32:08;;;;;;;23.57;9.65;;;;;;;0.42;37.72;101103.23;1832456;77;21231;-75
2021/03/12 04:34:36;;;;;;;20.88;11.15;;;;;;;0.46;37.74;101106.95;1826795;77;21672;-78
2021/03/12 04:37:03;;;;;;;17.32;9.63;;;;;;;0.53;37.86;101102.67;1822700;77;21153;-77
2021/03/12 04:39:31;;;;;;;14.53;8.05;;;;;;;0.58;37.45;101113.83;1822229;77;21145;-78
2021/03/12 04:41:59;;;;;;;16.73;7.35;;;;;;;0.59;37.59;101118.16;1824677;77;21201;-76
2021/03/12 04:44:27;;;;;;;19.90;9.75;;;;;;;0.66;37.64;101134.07;1810935;79;21505;-81
2021/03/12 04:46:54;;;;;;;18.00;9.38;;;;;;;0.70;37.44;101116.70;1802667;79;21163;-78
2021/03/12 04:49:22;;;;;;;20.50;9.63;;;;;;;0.76;37.51;101094.42;1829498;77;21529;-78
2021/03/12 04:51:49;;;;;;;14.73;8.28;;;;;;;0.73;37.31;101097.24;1830542;77;21163;-78
2021/03/12 04:54:17;;;;;;;18.00;10.03;;;;;;;0.60;37.38;101098.80;1822328;77;21167;-76
2021/03/12 04:56:45;;;;;;;19.75;8.53;;;;;;;0.53;37.64;101096.93;1822931;77;21107;-77
2021/03/12 04:59:13;;;;;;;21.60;10.75;;;;;;;0.54;37.74;101099.09;1793011;78;21080;-80
2021/03/12 05:01:47;;;;;;;23.95;10.10;;;;;;;0.46;37.55;101083.70;1834496;77;21574;-78
2021/03/12 05:04:12;;;;;;;18.32;10.03;;;;;;;0.33;37.70;101080.83;1852013;77;21568;-81
2021/03/12 05:06:42;;;;;;;29.50;12.65;;;;;;;0.29;38.00;101096.87;1827561;77;21120;-76
2021/03/12 05:09:13;;;;;;;19.95;9.90;;;;;;;0.30;37.82;101090.66;1787635;78;21200;-78
2021/03/12 05:11:43;;;;;;;26.37;11.35;;;;;;;0.18;37.74;101089.48;1804222;78;21176;-78
2021/03/12 05:14:14;;;;;;;21.62;10.85;;;;;;;0.12;37.99;101091.11;1810816;78;21204;-77
2021/03/12 05:16:45;;;;;;;27.40;10.80;;;;;;;0.10;38.05;101082.45;1792105;80;21175;-77
2021/03/12 05:19:13;;;;;;;19.48;10.32;;;;;;;0.10;37.79;101093.83;1812130;77;21185;-79
2021/03/12 05:21:41;;;;;;;24.02;8.93;;;;;;;0.09;37.91;101088.62;1794142;78;21202;-79
2021/03/12 05:24:11;;;;;;;18.90;8.95;;;;;;;0.16;37.90;101101.89;1830588;77;21184;-78
2021/03/12 05:26:39;;;;;;;51.80;10.63;;;;;;;0.22;37.69;101091.88;1798684;78;21624;-77
2021/03/12 05:29:06;;;;;;;23.42;8.00;;;;;;;0.27;37.79;101111.87;1778710;79;21196;-76
2021/03/12 05:31:34;;;;;;;15.53;7.50;;;;;;;0.25;37.56;101102.75;1840501;77;21147;-77
2021/03/12 05:34:03;;;;;;;19.27;8.75;;;;;;;0.22;37.50;101102.89;1857918;77;21203;-80
2021/03/12 05:36:31;;;;;;;20.92;8.78;;;;;;;0.17;37.53;101092.58;1857307;77;21155;-76
2021/03/12 05:38:58;;;;;;;24.18;8.75;;;;;;;0.16;37.66;101092.20;1857497;77;21163;-81
2021/03/12 05:41:27;;;;;;;17.55;8.55;;;;;;;0.13;37.60;101080.95;1853871;77;21167;-76
2021/03/12 05:43:56;;;;;;;19.90;7.95;;;;;;;0.07;37.80;101073.37;1848146;77;21683;-76
2021/03/12 05:46:23;;;;;;;22.37;8.85;;;;;;;-0.01;37.75;101081.17;1783849;78;21687;-79
2021/03/12 05:48:51;;;;;;;15.48;8.28;;;;;;;-0.06;38.11;101083.18;1822177;78;21189;-77
2021/03/12 05:51:19;;;;;;;23.83;8.23;;;;;;;0.03;38.19;101101.63;1792615;78;21551;-79
2021/03/12 05:53:47;;;;;;;21.12;8.30;;;;;;;0.05;37.96;101091.89;1814553;78;21361;-78
2021/03/12 05:56:16;;;;;;;20.70;7.95;;;;;;;0.11;37.89;101090.73;1769897;79;21204;-76
2021/03/12 05:58:57;;;;;;;21.42;9.03;;;;;;;0.11;37.84;101086.78;1803295;78;21184;-77
2021/03/12 06:01:25;;;;;;;20.57;9.35;;;;;;;0.05;37.88;101079.19;1811373;78;21289;-76
2021/03/12 06:03:53;;;;;;;17.60;7.28;;;;;;;0.08;38.15;101102.72;1816393;78;21666;-77
2021/03/12 06:06:22;;;;;;;26.57;9.38;;;;;;;0.16;37.98;101115.91;1796397;78;21136;-76
2021/03/12 06:08:50;;;;;;;15.78;7.95;;;;;;;0.24;37.63;101115.53;1802947;76;21168;-77
2021/03/12 06:11:18;;;;;;;19.30;7.30;;;;;;;0.22;37.15;101123.97;1801836;78;21132;-79
2021/03/12 06:13:54;;;;;;;16.77;6.28;;;;;;;0.24;37.31;101146.69;1786634;77;21119;-75
2021/03/12 06:16:31;;;;;;;13.50;6.62;;;;;;;0.28;36.81;101136.86;1836719;77;21218;-76
2021/03/12 06:19:17;;;;;;;17.98;7.45;;;;;;;0.20;36.61;101162.72;1838018;76;21109;-77
2021/03/12 06:21:47;;;;;;;17.82;6.97;;;;;;;0.09;36.57;101142.61;1814184;77;21387;-76
2021/03/12 06:24:31;;;;;;;18.65;7.30;;;;;;;0.05;36.79;101136.67;1832824;76;21127;-78
2021/03/12 06:27:28;;;;;;;17.77;7.12;;;;;;;0.08;36.86;101125.11;1714297;77;21120;-76
2021/03/12 06:30:00;;;;;;;17.77;7.87;;;;;;;0.15;36.63;101127.84;1829890;76;21143;-78
2021/03/12 06:32:46;;;;;;;20.97;7.08;;;;;;;0.23;36.58;101107.25;1831782;76;21559;-76
2021/03/12 06:35:21;;;;;;;15.90;6.60;;;;;;;0.26;36.31;101105.77;1833189;76;21148;-76
2021/03/12 06:38:09;;;;;;;17.32;7.92;;;;;;;0.37;36.00;101103.45;1807033;77;21132;-75
2021/03/12 06:40:38;;;;;;;14.63;6.67;;;;;;;0.52;35.88;101116.78;1818158;76;21671;-76
2021/03/12 06:43:16;;;;;;;21.68;8.28;;;;;;;0.67;35.78;101114.20;1835049;75;21089;-76
2021/03/12 06:45:51;;;;;;;18.05;5.65;;;;;;;0.86;35.75;101097.42;1835641;76;21592;-76
2021/03/12 06:48:34;;;;;;;12.85;5.95;;;;;;;0.97;33.83;101122.32;1817742;76;21196;-78
2021/03/12 06:51:25;;;;;;;18.17;6.15;;;;;;;0.86;33.66;101139.63;1785984;77;21181;-77
2021/03/12 06:53:56;;;;;;;14.43;6.00;;;;;;;0.79;33.74;101118.01;1810633;77;21116;-75
2021/03/12 06:56:29;;;;;;;12.28;5.12;;;;;;;0.81;33.70;101119.23;1776715;77;21136;-74
2021/03/12 06:59:15;;;;;;;15.83;6.33;;;;;;;0.84;33.46;101132.27;1808068;77;21640;-77
2021/03/12 07:02:04;;;;;;;15.15;5.58;;;;;;;0.90;32.85;101123.56;1807752;77;21136;-75
2021/03/12 07:04:35;;;;;;;11.57;4.50;;;;;;;0.85;32.85;101109.77;1800362;77;21780;-75
2021/03/12 07:07:04;;;;;;;16.40;6.33;;;;;;;0.84;33.00;101103.27;1767947;79;21605;-75
2021/03/12 07:09:34;;;;;;;11.05;5.30;;;;;;;0.89;32.77;101087.58;1786885;77;21113;-74
2021/03/12 07:12:13;;;;;;;10.95;4.80;;;;;;;0.95;32.11;101111.02;1818187;77;22096;-76
2021/03/12 07:14:51;;;;;;;10.78;5.40;;;;;;;0.88;32.01;101088.52;1837143;76;21924;-74
2021/03/12 07:17:22;;;;;;;12.90;5.72;;;;;;;0.90;32.17;101076.09;1820545;77;21142;-77
2021/03/12 07:19:51;;;;;;;11.22;5.40;;;;;;;0.92;32.18;101084.79;1795085;77;21186;-76
2021/03/12 07:22:19;;;;;;;9.90;5.90;;;;;;;0.89;32.16;101073.07;1839108;76;21152;-78
2021/03/12 07:24:48;;;;;;;13.25;5.55;;;;;;;0.89;32.16;101069.11;1820851;76;21665;-77
2021/03/12 07:27:16;;;;;;;13.18;6.53;;;;;;;0.95;31.75;101079.36;1822907;77;21697;-76
2021/03/12 07:29:57;;;;;;;12.47;5.40;;;;;;;0.93;31.22;101071.13;1803611;77;21140;-77
2021/03/12 07:32:26;;;;;;;11.38;5.10;;;;;;;0.92;31.63;101081.30;1760383;77;21691;-75
2021/03/12 07:34:54;;;;;;;10.18;4.90;;;;;;;0.93;31.29;101071.98;1793522;77;21105;-79
2021/03/12 07:37:27;;;;;;;12.60;4.80;;;;;;;0.95;31.34;101067.49;1785865;77;21096;-75
2021/03/12 07:39:55;;;;;;;9.25;4.50;;;;;;;0.99;31.03;101079.55;1781805;78;21164;-75
2021/03/12 07:42:25;;;;;;;7.05;4.28;;;;;;;1.01;31.32;101078.17;1782496;77;21148;-75
2021/03/12 07:44:57;;;;;;;9.13;5.15;;;;;;;1.11;31.46;101091.72;1798366;77;21092;-76
2021/03/12 07:47:44;;;;;;;12.50;4.22;;;;;;;1.21;31.02;101105.64;1808038;77;21663;-76
2021/03/12 07:50:32;;;;;;;6.17;3.67;;;;;;;1.23;30.76;101101.16;1776088;77;21105;-78
2021/03/12 07:53:02;;;;;;;;;;;;;;;1.26;30.66;101118.13;1811092;77;21198;-76
2021/03/12 07:55:45;;;;;;;19.77;5.03;;;;;;;1.21;30.54;101106.97;1805121;77;20568;-75
2021/03/12 07:58:53;;;;;;;11.73;4.33;;;;;;;1.16;30.77;101102.88;1797784;77;21140;-74
2021/03/12 08:01:23;;;;;;;11.65;5.10;;;;;;;1.19;30.83;101108.00;1803107;77;21129;-75
2021/03/12 08:03:53;;;;;;;13.75;5.70;;;;;;;1.22;30.72;101111.77;1777107;78;21160;-75
2021/03/12 08:06:29;;;;;;;10.03;4.92;;;;;;;1.24;30.93;101107.28;1803315;77;21184;-76
2021/03/12 08:09:35;;;;;;;12.68;4.90;;;;;;;1.27;30.74;101091.26;1810653;76;22552;-77
2021/03/12 08:12:29;;;;;;;25.70;4.67;;;;;;;1.34;30.90;101108.48;1806622;77;21124;-76
2021/03/12 08:15:29;;;;;;;8.25;4.25;;;;;;;1.36;30.77;101110.55;1815953;77;21591;-76
2021/03/12 08:18:04;;;;;;;6.87;3.55;;;;;;;1.37;30.97;101085.89;1817353;77;22070;-77
2021/03/12 08:20:40;;;;;;;7.90;4.42;;;;;;;1.38;31.05;101079.67;1816012;76;21124;-79
2021/03/12 08:23:16;;;;;;;12.28;5.85;;;;;;;1.37;31.31;101085.05;1817313;77;21122;-77
2021/03/12 08:25:47;;;;;;;9.85;4.60;;;;;;;1.40;31.51;101063.73;1804292;77;21137;-76
2021/03/12 08:28:26;;;;;;;8.40;4.35;;;;;;;1.50;31.62;101064.95;1769510;76;21130;-74
2021/03/12 08:30:58;;;;;;;8.00;3.92;;;;;;;1.60;31.47;101042.84;1836681;76;21077;-78
2021/03/12 08:33:35;;;;;;;13.03;6.55;;;;;;;1.65;31.42;101031.08;1836999;76;21601;-74
2021/03/12 08:36:16;;;;;;;10.82;4.87;;;;;;;1.72;31.85;101015.72;1840060;75;21108;-75
2021/03/12 08:39:05;;;;;;;11.85;5.87;;;;;;;1.89;31.54;101039.85;1837832;76;21143;-76
2021/03/12 08:41:41;;;;;;;12.18;5.67;;;;;;;1.90;31.35;101000.13;1809299;77;21086;-76
2021/03/12 08:44:16;;;;;;;10.18;4.85;;;;;;;1.93;31.61;101012.32;1812291;77;21091;-75
2021/03/12 08:47:18;;;;;;;10.88;4.83;;;;;;;2.00;31.42;101011.88;1810227;77;21569;-76
2021/03/12 08:49:48;;;;;;;10.30;5.35;;;;;;;2.02;31.27;101016.59;1810280;77;21117;-77
2021/03/12 08:52:21;;;;;;;14.38;5.05;;;;;;;2.03;31.39;101009.52;1807315;78;21380;-77
2021/03/12 08:54:55;;;;;;;13.88;5.15;;;;;;;2.11;31.47;101009.92;1823391;77;21097;-76
2021/03/12 08:57:25;;;;;;;13.78;4.83;;;;;;;2.22;31.49;100994.27;1805853;77;21084;-77
2021/03/12 09:00:09;;;;;;;10.63;4.50;;;;;;;2.35;31.29;101000.99;1812293;77;21123;-76
2021/03/12 09:03:16;;;;;;;8.73;5.03;;;;;;;2.39;31.32;100999.87;1838094;75;22226;-77
2021/03/12 09:05:48;;;;;;;16.85;6.00;;;;;;;2.40;31.31;100987.02;1832431;75;21141;-77
2021/03/12 09:08:26;;;;;;;8.73;4.80;;;;;;;2.41;31.11;100959.67;1799794;78;21095;-75
2021/03/12 09:11:09;;;;;;;12.85;5.87;;;;;;;2.42;31.27;100944.65;1815357;76;21568;-78
2021/03/12 09:13:40;;;;;;;12.90;4.95;;;;;;;2.45;31.48;100933.42;1832929;76;21109;-76
2021/03/12 09:16:09;;;;;;;7.83;4.67;;;;;;;2.62;31.80;100927.54;1798917;78;21187;-77
2021/03/12 09:18:39;;;;;;;13.72;5.12;;;;;;;2.81;31.68;100928.08;1808005;77;21129;-77
2021/03/12 09:21:10;;;;;;;9.15;4.90;;;;;;;2.94;30.98;100906.98;1832472;75;21132;-77
2021/03/12 09:23:59;;;;;;;9.50;5.22;;;;;;;2.94;31.09;100904.34;1803764;76;21085;-76
2021/03/12 09:26:32;;;;;;;11.12;5.78;;;;;;;2.94;31.35;100885.81;1810279;77;21168;-76
2021/03/12 09:29:06;;;;;;;10.93;5.20;;;;;;;2.94;30.93;100893.27;1838114;75;21141;-76
2021/03/12 09:31:37;;;;;;;13.43;5.28;;;;;;;2.86;31.33;100859.88;1802898;77;21550;-78
2021/03/12 09:34:14;;;;;;;8.20;4.50;;;;;;;2.88;31.62;100876.48;1829703;76;21179;-77
2021/03/12 09:36:46;;;;;;;25.82;4.47;;;;;;;2.87;31.64;100876.59;1829064;76;21095;-76
2021/03/12 09:39:32;;;;;;;11.90;4.90;;;;;;;2.76;31.73;100870.17;1834977;76;21727;-78
2021/03/12 09:42:08;;;;;;;11.03;5.90;;;;;;;2.72;32.26;100841.37;1767220;77;21675;-76
2021/03/12 09:44:38;;;;;;;14.70;6.47;;;;;;;2.79;32.70;100836.07;1805869;77;21615;-78
2021/03/12 09:47:09;;;;;;;15.10;6.65;;;;;;;2.95;32.16;100851.34;1806560;77;21117;-76
2021/03/12 09:49:42;;;;;;;16.42;5.72;;;;;;;3.00;32.38;100834.69;1809954;77;21110;-75
2021/03/12 09:52:14;;;;;;;20.15;5.78;;;;;;;3.00;32.38;100861.63;1813055;77;21157;-78
2021/03/12 09:54:45;;;;;;;11.10;5.65;;;;;;;3.04;32.67;100840.59;1805192;77;21144;-75
2021/03/12 09:57:18;;;;;;;15.15;6.00;;;;;;;3.14;32.42;100831.61;1782089;77;21122;-75
2021/03/12 09:59:50;;;;;;;12.50;5.42;;;;;;;3.10;32.51;100815.08;1812753;77;21123;-74
2021/03/12 10:02:24;;;;;;;17.55;6.70;;;;;;;3.04;32.69;100824.72;1835928;76;21116;-75
2021/03/12 10:05:10;;;;;;;16.17;8.43;;;;;;;3.02;33.08;100796.20;1833728;76;21133;-76
2021/03/12 10:08:05;;;;;;;22.22;9.65;;;;;;;3.14;33.40;100786.61;1837507;76;21679;-75
2021/03/12 10:10:40;;;;;;;14.73;8.18;;;;;;;3.26;33.00;100781.80;1818882;77;21124;-77
2021/03/12 10:13:09;;;;;;;11.83;6.15;;;;;;;3.25;33.16;100785.41;1793694;78;21112;-77
2021/03/12 10:15:41;;;;;;;15.23;6.00;;;;;;;3.25;33.38;100788.05;1795356;78;21133;-75
2021/03/12 10:18:19;;;;;;;12.18;5.70;;;;;;;3.24;33.52;100767.83;1817896;77;21137;-77
2021/03/12 10:20:50;;;;;;;10.80;5.70;;;;;;;3.25;33.78;100792.02;1811228;76;21168;-78
2021/03/12 10:23:17;;;;;;;9.25;5.05;;;;;;;3.25;33.91;100776.98;1813542;77;21108;-76
2021/03/12 10:25:47;;;;;;;20.57;8.08;;;;;;;3.30;34.02;100772.70;1813384;77;21060;-76
2021/03/12 10:28:18;;;;;;;22.58;11.03;;;;;;;3.33;34.05;100739.89;1813434;76;21148;-78
2021/03/12 10:30:50;;;;;;;21.12;8.08;;;;;;;3.36;34.20;100742.30;1786224;78;21100;-76
2021/03/12 10:33:25;;;;;;;15.70;8.05;;;;;;;3.46;34.27;100744.23;1820901;77;21117;-76
2021/03/12 10:36:02;;;;;;;12.47;5.35;;;;;;;3.55;34.17;100748.90;1819018;77;26405;-79
2021/03/12 10:38:34;;;;;;;12.53;5.72;;;;;;;3.57;34.34;100727.59;1819249;77;21141;-75
2021/03/12 10:41:19;;;;;;;17.27;7.28;;;;;;;3.64;34.57;100743.92;1839920;76;21085;-76
2021/03/12 10:44:02;;;;;;;17.77;8.20;;;;;;;3.69;34.45;100743.13;1784382;77;21478;-76
2021/03/12 10:46:31;;;;;;;11.18;6.17;;;;;;;3.73;34.36;100747.25;1807983;77;21197;-78
2021/03/12 10:49:01;;;;;;;13.08;6.12;;;;;;;3.71;34.14;100763.23;1837995;76;21644;-76
2021/03/12 10:51:39;;;;;;;14.68;6.60;;;;;;;3.62;34.24;100767.00;1803482;77;21145;-76
2021/03/12 10:54:12;;;;;;;10.08;5.53;;;;;;;3.51;34.78;100755.84;1834493;77;21142;-76
2021/03/12 10:56:46;;;;;;;19.82;7.33;;;;;;;3.46;35.02;100758.80;1785868;78;21572;-79
2021/03/12 10:59:14;;;;;;;14.93;6.53;;;;;;;3.45;35.27;100744.32;1813649;77;21109;-77
2021/03/12 11:01:45;;;;;;;10.48;5.47;;;;;;;3.45;35.27;100744.32;1814537;76;21136;-76
2021/03/12 11:04:13;;;;;;;7.75;5.47;;;;;;;3.50;35.36;100757.64;1814454;77;21148;-77
2021/03/12 11:06:42;;;;;;;9.40;5.45;;;;;;;3.56;35.24;100773.58;1812158;78;21121;-78
2021/03/12 11:09:12;;;;;;;8.85;5.45;;;;;;;3.58;35.20;100758.89;1790381;77;21216;-76
2021/03/12 11:11:43;;;;;;;13.25;6.65;;;;;;;3.53;35.36;100748.62;1815500;77;21129;-78
2021/03/12 11:14:11;;;;;;;9.40;5.62;;;;;;;3.53;35.34;100764.51;1794199;77;21894;-77
2021/03/12 11:16:38;;;;;;;12.60;5.30;;;;;;;3.51;35.43;100758.00;1813329;77;21136;-77
2021/03/12 11:21:42;;;;;;;15.55;6.40;;;;;;;3.50;35.46;100754.98;1826844;77;23527;-75
2021/03/12 11:24:12;;;;;;;13.25;6.15;;;;;;;3.50;35.69;100755.47;1818412;77;21198;-73
2021/03/12 11:26:42;;;;;;;7.78;5.08;;;;;;;3.53;35.45;100744.16;1766493;78;21694;-75
2021/03/12 11:29:10;;;;;;;11.03;5.87;;;;;;;3.47;35.48;100755.67;1791727;79;21235;-77
2021/03/12 11:31:37;;;;;;;9.58;5.30;;;;;;;3.43;35.64;100761.64;1809388;78;21674;-76
2021/03/12 11:34:07;;;;;;;18.55;6.17;;;;;;;3.43;35.79;100741.78;1808177;77;21204;-76
2021/03/12 11:36:35;;;;;;;9.33;5.28;;;;;;;3.46;35.77;100762.77;1785214;78;21161;-76
2021/03/12 11:39:03;;;;;;;15.23;6.90;;;;;;;3.45;35.88;100746.52;1787897;79;21216;-78
2021/03/12 11:41:31;;;;;;;8.03;5.33;;;;;;;3.45;35.91;100737.25;1822727;77;21181;-78
2021/03/12 11:44:00;;;;;;;9.55;6.03;;;;;;;3.40;36.00;100728.75;1814760;78;21188;-76
2021/03/12 11:46:27;;;;;;;11.40;6.00;;;;;;;3.39;36.22;100731.03;1810171;78;21219;-78
2021/03/12 11:48:54;;;;;;;12.28;6.05;;;;;;;3.37;36.23;100730.78;1809807;78;21193;-77
2021/03/12 11:51:21;;;;;;;;;;;;;;;3.39;36.41;100719.59;1811270;78;21511;-77
2021/03/12 11:53:49;;;;;;;11.43;5.58;;;;;;;3.37;36.51;100721.03;1814461;78;20286;-75